Time;durP1;ratioP1;P1;durP2;ratioP2;P2;SDS_P1;SDS_P2;PMS_P1;PMS_P2;Temp;Humidity;BMP_temperature;BMP_pressure;BME280_temperature;BME280_humidity;BME280_pressure;Samples;Min_cycle;Max_cycle;Signal;HPM_P1;HPM_P2
2023/01/15 00:00:20;;;;;;;4.00;2.55;;;;;;;8.66;100.00;98760.75;5061970;28;20051;-81
2023/01/15 00:02:47;;;;;;;3.13;2.13;;;;;;;8.61;100.00;98747.03;5071341;28;20135;-81
2023/01/15 00:05:14;;;;;;;3.25;2.15;;;;;;;8.70;100.00;98745.56;5065639;28;20048;-78
2023/01/15 00:07:41;;;;;;;3.40;2.25;;;;;;;8.16;100.00;98676.13;5070013;28;20048;-78
2023/01/15 00:10:08;;;;;;;2.33;2.08;;;;;;;9.13;100.00;98830.72;5065620;28;20132;-79
2023/01/15 00:12:34;;;;;;;3.10;2.20;;;;;;;9.18;100.00;98835.69;5068622;28;20064;-78
2023/01/15 00:15:01;;;;;;;4.15;1.95;;;;;;;9.13;100.00;98822.78;5071275;28;20490;-80
2023/01/15 00:17:27;;;;;;;2.85;1.85;;;;;;;8.61;100.00;98731.22;5063228;28;20045;-79
2023/01/15 00:19:54;;;;;;;3.50;1.90;;;;;;;8.96;100.00;98786.97;5062223;28;20040;-78
2023/01/15 00:22:20;;;;;;;3.72;1.88;;;;;;;9.00;100.00;98796.34;5070671;28;20421;-79
2023/01/15 00:27:38;;;;;;;2.72;1.90;;;;;;;9.23;100.00;98823.03;5062314;28;20076;-78
2023/01/15 00:30:07;;;;;;;4.25;1.83;;;;;;;9.15;100.00;98807.69;5063130;28;20044;-78
2023/01/15 00:32:34;;;;;;;1.83;1.70;;;;;;;9.15;100.00;98805.91;5067798;28;20485;-79
2023/01/15 00:35:00;;;;;;;1.88;1.70;;;;;;;8.87;100.00;98737.41;5071487;28;20044;-79
2023/01/15 00:37:27;;;;;;;3.00;1.92;;;;;;;9.18;100.00;98783.72;5062839;28;20070;-79
2023/01/15 00:39:54;;;;;;;2.10;1.75;;;;;;;9.31;100.00;98804.88;5070950;28;20060;-79
2023/01/15 00:42:20;;;;;;;1.33;1.23;;;;;;;9.11;100.00;98788.59;5071746;28;20040;-81
2023/01/15 00:44:47;;;;;;;2.40;1.55;;;;;;;9.18;100.00;98791.66;5063130;28;20442;-79
2023/01/15 00:47:14;;;;;;;3.42;2.10;;;;;;;9.03;100.00;98758.34;5071137;28;20052;-78
2023/01/15 00:49:41;;;;;;;2.42;1.50;;;;;;;9.28;100.00;98799.81;5071334;28;20127;-77
2023/01/15 00:52:08;;;;;;;2.97;1.02;;;;;;;9.28;100.00;98813.03;5063017;28;20037;-78
2023/01/15 00:54:35;;;;;;;3.38;1.30;;;;;;;9.07;100.00;98773.88;5069290;28;20512;-79
2023/01/15 00:57:01;;;;;;;3.92;1.30;;;;;;;9.29;100.00;98812.91;5070652;28;20131;-78
2023/01/15 00:59:28;;;;;;;3.58;1.20;;;;;;;9.29;100.00;98820.81;5069262;28;20048;-78
2023/01/15 01:01:54;;;;;;;2.40;1.38;;;;;;;9.30;100.00;98824.31;5069736;28;20123;-79
2023/01/15 01:04:21;;;;;;;1.60;0.93;;;;;;;9.17;100.00;98783.81;5064253;28;20060;-78
2023/01/15 01:06:48;;;;;;;1.52;0.80;;;;;;;8.75;100.00;98714.47;5059724;28;20057;-78
2023/01/15 01:09:15;;;;;;;0.98;0.70;;;;;;;8.65;100.00;98710.75;5068882;28;20045;-80
2023/01/15 01:11:43;;;;;;;3.00;0.70;;;;;;;8.53;100.00;98693.91;5059026;28;20060;-78
2023/01/15 01:14:11;;;;;;;1.70;0.82;;;;;;;9.10;100.00;98781.63;5063664;28;20090;-78
2023/01/15 01:16:39;;;;;;;1.40;0.77;;;;;;;8.87;100.00;98733.91;5064192;28;20135;-80
2023/01/15 01:19:20;;;;;;;2.13;0.90;;;;;;;7.72;100.00;98543.63;5070846;28;20397;-80
2023/01/15 01:21:51;;;;;;;1.58;0.80;;;;;;;7.68;100.00;98557.97;5068925;28;20156;-79
2023/01/15 01:24:20;;;;;;;1.15;0.80;;;;;;;8.54;100.00;98714.06;5064176;28;20735;-80
2023/01/15 01:26:49;;;;;;;1.17;1.00;;;;;;;9.10;100.00;98850.28;5071307;28;20131;-80
2023/01/15 01:29:19;;;;;;;2.47;0.90;;;;;;;8.78;100.00;98767.91;5070392;28;20048;-81
2023/01/15 01:31:46;;;;;;;1.50;1.10;;;;;;;8.43;100.00;98721.84;5069853;28;20056;-81
2023/01/15 01:34:13;;;;;;;1.65;1.05;;;;;;;8.39;100.00;98696.59;5071307;28;20369;-81
2023/01/15 01:36:43;;;;;;;1.13;1.08;;;;;;;8.99;100.00;98804.38;5068472;28;20412;-79
2023/01/15 01:39:17;;;;;;;1.67;1.48;;;;;;;9.01;100.00;98816.53;5070681;28;20075;-79
2023/01/15 01:41:45;;;;;;;1.88;1.40;;;;;;;9.07;100.00;98839.06;5069726;28;20052;-77
2023/01/15 01:44:31;;;;;;;3.47;1.00;;;;;;;9.03;100.00;98821.72;5069417;28;20059;-78
2023/01/15 01:47:02;;;;;;;1.33;1.00;;;;;;;8.70;100.00;98775.44;5057029;28;20139;-78
2023/01/15 01:49:32;;;;;;;1.58;0.80;;;;;;;8.88;100.00;98809.50;5064809;28;20377;-80
2023/01/15 01:52:12;;;;;;;0.75;0.75;;;;;;;8.01;100.00;98678.81;5070465;28;20149;-79
2023/01/15 01:54:45;;;;;;;1.67;0.73;;;;;;;7.93;100.00;98678.44;5070692;28;20150;-80
2023/01/15 01:57:18;;;;;;;1.13;0.80;;;;;;;8.91;100.00;98867.41;5070875;28;20058;-79
2023/01/15 01:59:47;;;;;;;1.25;0.50;;;;;;;7.55;100.00;98664.19;5061706;28;20501;-80
2023/01/15 02:02:18;;;;;;;1.73;0.60;;;;;;;8.37;100.00;98822.44;5070167;28;20044;-79
2023/01/15 02:04:45;;;;;;;1.33;0.60;;;;;;;7.77;100.00;98714.59;5069108;28;20516;-79
2023/01/15 02:07:12;;;;;;;1.42;0.60;;;;;;;8.10;100.00;98793.34;5070790;28;20064;-80
2023/01/15 02:09:41;;;;;;;1.38;0.50;;;;;;;8.60;100.00;98894.88;5069680;28;20083;-81
2023/01/15 02:12:22;;;;;;;4.65;0.88;;;;;;;8.26;100.00;98851.25;5069832;28;20044;-81
2023/01/15 02:15:07;;;;;;;2.08;0.70;;;;;;;8.35;100.00;98861.25;5068888;28;20139;-81
2023/01/15 02:17:51;;;;;;;1.08;0.55;;;;;;;8.27;100.00;98853.81;5062769;28;20044;-82
2023/01/15 02:20:37;;;;;;;1.35;0.93;;;;;;;8.15;100.00;98822.09;5058642;28;20051;-79
2023/01/15 02:23:35;;;;;;;2.08;0.82;;;;;;;7.62;100.00;98739.25;5059287;28;20142;-81
2023/01/15 02:26:50;;;;;;;1.05;0.70;;;;;;;8.13;100.00;98840.63;5058302;28;20055;-80
2023/01/15 02:29:23;;;;;;;1.02;0.50;;;;;;;8.41;100.00;98903.09;5018362;28;20205;-80
2023/01/15 02:31:51;;;;;;;0.80;0.43;;;;;;;8.33;100.00;98913.28;5060466;28;20063;-80
2023/01/15 02:34:26;;;;;;;0.95;0.30;;;;;;;8.20;100.00;98920.19;5067477;28;20049;-79
2023/01/15 02:37:25;;;;;;;0.60;0.20;;;;;;;7.92;100.00;98898.13;5068227;28;20056;-78
2023/01/15 02:39:55;;;;;;;0.10;0.10;;;;;;;7.15;100.00;98779.81;5069435;28;20060;-80
2023/01/15 02:42:23;;;;;;;1.95;0.30;;;;;;;6.82;100.00;98742.31;5069638;28;20143;-79
2023/01/15 02:44:53;;;;;;;0.10;0.10;;;;;;;7.67;100.00;98917.19;5068673;28;20052;-79
2023/01/15 02:47:30;;;;;;;0.20;0.20;;;;;;;6.63;100.00;98738.09;5068082;28;20064;-77
2023/01/15 02:50:06;;;;;;;0.68;0.10;;;;;;;6.80;100.00;98787.13;5070263;28;20055;-77
2023/01/15 02:52:50;;;;;;;0.38;0.30;;;;;;;7.49;100.00;98943.75;5067293;28;20048;-79
2023/01/15 02:55:33;;;;;;;1.80;0.10;;;;;;;7.49;100.00;98917.41;5064192;28;20048;-78
2023/01/15 02:58:12;;;;;;;0.20;0.10;;;;;;;5.68;100.00;98623.44;5060003;28;20484;-77
2023/01/15 03:00:44;;;;;;;0.10;0.10;;;;;;;5.77;100.00;98682.50;5063392;28;20059;-78
2023/01/15 03:03:34;;;;;;;0.28;0.20;;;;;;;7.09;100.00;98895.13;5068574;28;20104;-79
2023/01/15 03:06:07;;;;;;;0.20;0.20;;;;;;;7.25;100.00;98930.19;5067735;28;20056;-78
2023/01/15 03:08:34;;;;;;;0.60;0.10;;;;;;;7.14;100.00;98929.94;5065430;28;20079;-78
2023/01/15 03:11:10;;;;;;;0.20;0.20;;;;;;;7.25;100.00;98957.34;5067581;28;20051;-78
2023/01/15 03:14:03;;;;;;;0.95;0.10;;;;;;;7.24;100.00;98960.09;5067442;28;20071;-77
2023/01/15 03:16:38;;;;;;;0.10;0.10;;;;;;;7.18;100.00;98947.28;5067368;28;20048;-78
2023/01/15 03:19:37;;;;;;;1.15;0.10;;;;;;;7.07;100.00;98953.16;5059724;28;20490;-79
2023/01/15 03:22:04;;;;;;;0.35;0.10;;;;;;;7.01;100.00;98953.47;5057661;28;20049;-78
2023/01/15 03:24:38;;;;;;;0.82;0.15;;;;;;;6.69;100.00;98919.25;5061502;28;20052;-77
2023/01/15 03:27:06;;;;;;;0.10;0.10;;;;;;;6.46;100.00;98913.53;5068597;28;20048;-78
2023/01/15 03:29:38;;;;;;;0.30;0.20;;;;;;;6.73;100.00;98974.34;5064474;28;20083;-78
2023/01/15 03:32:05;;;;;;;1.20;0.10;;;;;;;6.41;100.00;98934.84;5067500;28;20053;-78
2023/01/15 03:34:45;;;;;;;1.02;0.10;;;;;;;6.55;100.00;98966.50;5071493;28;20476;-79
2023/01/15 03:37:12;;;;;;;0.10;0.10;;;;;;;6.02;100.00;98902.75;5069401;28;20041;-77
2023/01/15 03:39:41;;;;;;;0.10;0.10;;;;;;;6.42;100.00;98969.88;5071990;28;20048;-78
2023/01/15 03:42:13;;;;;;;0.17;0.15;;;;;;;6.36;100.00;98992.06;5063469;28;20048;-78
2023/01/15 03:44:52;;;;;;;0.10;0.10;;;;;;;6.29;100.00;98985.44;5059681;28;20056;-78
2023/01/15 03:47:44;;;;;;;0.10;0.10;;;;;;;6.22;100.00;98994.56;5063804;28;20049;-79
2023/01/15 03:50:36;;;;;;;1.30;0.20;;;;;;;6.22;100.00;99007.69;5067555;28;20036;-79
2023/01/15 03:53:20;;;;;;;0.13;0.10;;;;;;;5.83;100.00;98934.31;5071593;28;20124;-78
2023/01/15 03:56:07;;;;;;;0.10;0.10;;;;;;;6.12;100.00;98990.72;5064618;28;20059;-78
2023/01/15 03:58:42;;;;;;;0.20;0.20;;;;;;;5.85;100.00;98967.47;5070384;28;20052;-78
2023/01/15 04:01:11;;;;;;;0.15;0.15;;;;;;;5.68;100.00;98951.72;5055377;28;20076;-79
2023/01/15 04:03:38;;;;;;;0.10;0.10;;;;;;;5.63;100.00;98937.97;5069657;28;20136;-77
2023/01/15 04:06:06;;;;;;;1.10;0.20;;;;;;;5.78;100.00;98971.34;5069341;28;20460;-78
2023/01/15 04:08:38;;;;;;;0.30;0.17;;;;;;;5.68;100.00;98975.34;5061173;28;20048;-79
2023/01/15 04:11:05;;;;;;;1.75;0.20;;;;;;;4.87;100.00;98879.59;5071023;28;20044;-78
2023/01/15 04:13:31;;;;;;;0.65;0.13;;;;;;;5.54;100.00;98996.19;5065707;28;20140;-79
2023/01/15 04:15:58;;;;;;;1.77;0.22;;;;;;;5.03;100.00;98924.31;5070298;28;20056;-78
2023/01/15 04:18:26;;;;;;;2.92;0.20;;;;;;;5.59;100.00;99018.69;5070813;28;20076;-78
2023/01/15 04:20:54;;;;;;;0.52;0.10;;;;;;;5.40;100.00;98996.84;5071069;28;20055;-78
2023/01/15 04:23:21;;;;;;;0.20;0.20;;;;;;;5.24;100.00;98975.75;5063632;28;20040;-78
2023/01/15 04:25:48;;;;;;;0.65;0.20;;;;;;;5.28;100.00;98995.69;5069376;28;20062;-78
2023/01/15 04:28:15;;;;;;;0.63;0.20;;;;;;;4.98;100.00;98970.03;5066562;28;20040;-78
2023/01/15 04:30:42;;;;;;;0.50;0.20;;;;;;;4.97;100.00;98977.06;5067114;28;20048;-77
2023/01/15 04:33:09;;;;;;;0.73;0.30;;;;;;;5.39;100.00;99057.31;5073698;28;20045;-78
2023/01/15 04:35:37;;;;;;;1.27;0.20;;;;;;;5.10;100.00;99017.53;5078312;28;20056;-78
2023/01/15 04:38:04;;;;;;;0.47;0.30;;;;;;;4.51;100.00;98934.59;5078456;28;20110;-78
2023/01/15 04:46:00;;;;;;;0.60;0.20;;;;;;;5.11;100.00;99055.97;5083290;28;20075;-81
2023/01/15 04:48:27;;;;;;;1.10;0.20;;;;;;;4.79;100.00;99010.22;5073052;28;20139;-80
2023/01/15 04:50:54;;;;;;;1.17;0.10;;;;;;;4.80;100.00;99017.19;5077689;28;20060;-81
2023/01/15 04:53:20;;;;;;;0.10;0.10;;;;;;;4.85;100.00;99037.97;5083934;28;20040;-79
2023/01/15 04:55:47;;;;;;;0.10;0.10;;;;;;;4.69;100.00;99003.72;5080443;28;20063;-79
2023/01/15 04:58:13;;;;;;;1.10;0.10;;;;;;;5.03;100.00;99083.50;5079305;28;20059;-78
2023/01/15 05:00:40;;;;;;;0.20;0.10;;;;;;;4.83;100.00;99073.88;5077814;28;20048;-79
2023/01/15 05:03:06;;;;;;;0.20;0.10;;;;;;;4.95;100.00;99089.06;5068129;28;20422;-80
2023/01/15 05:05:33;;;;;;;0.10;0.10;;;;;;;4.93;100.00;99077.78;5070527;28;20052;-79
2023/01/15 05:08:00;;;;;;;0.45;0.10;;;;;;;4.79;100.00;99052.19;5072707;28;20048;-78
2023/01/15 05:10:26;;;;;;;0.63;0.20;;;;;;;4.60;100.00;99019.84;5076849;28;20485;-79
2023/01/15 05:12:53;;;;;;;0.47;0.20;;;;;;;4.92;100.00;99079.56;5077585;28;20067;-79
2023/01/15 05:15:19;;;;;;;1.13;0.10;;;;;;;4.76;100.00;99033.13;5076997;28;20059;-79
2023/01/15 05:17:46;;;;;;;0.10;0.10;;;;;;;4.82;100.00;99052.06;5072798;28;20064;-81
2023/01/15 05:20:14;;;;;;;0.20;0.10;;;;;;;4.90;100.00;99072.69;5074431;28;20057;-81
2023/01/15 05:22:40;;;;;;;0.82;0.20;;;;;;;4.82;100.00;99053.84;5074392;28;20645;-81
2023/01/15 05:25:07;;;;;;;0.10;0.10;;;;;;;4.43;100.00;98985.66;5075284;28;20044;-81
2023/01/15 05:27:34;;;;;;;0.10;0.10;;;;;;;4.90;100.00;99072.69;5069323;28;20453;-81
2023/01/15 05:30:00;;;;;;;0.85;0.20;;;;;;;4.94;100.00;99093.47;5072503;28;20059;-80
2023/01/15 05:32:29;;;;;;;0.45;0.22;;;;;;;3.87;100.00;98892.94;5066679;28;20352;-80
2023/01/15 05:34:55;;;;;;;0.10;0.10;;;;;;;4.74;100.00;99045.44;5070105;28;20055;-81
2023/01/15 05:37:22;;;;;;;1.95;0.10;;;;;;;4.13;100.00;98967.75;5067914;28;20600;-80
2023/01/15 05:39:48;;;;;;;0.20;0.20;;;;;;;4.07;100.00;98959.31;5070450;28;20060;-79
2023/01/15 05:42:15;;;;;;;0.30;0.20;;;;;;;4.10;100.00;98980.97;5069938;28;20044;-79
2023/01/15 05:44:41;;;;;;;0.80;0.20;;;;;;;4.10;100.00;98980.13;5069042;28;20044;-78
2023/01/15 05:47:09;;;;;;;0.55;0.10;;;;;;;4.92;100.00;99124.16;5065807;28;20065;-77
2023/01/15 05:49:36;;;;;;;1.00;0.13;;;;;;;4.76;100.00;99098.69;5065507;28;20052;-79
2023/01/15 05:52:03;;;;;;;2.70;0.70;;;;;;;4.53;100.00;99058.59;5070043;28;20048;-79
2023/01/15 05:54:34;;;;;;;1.88;0.20;;;;;;;4.66;100.00;99094.75;5071367;28;20051;-79
2023/01/15 05:57:01;;;;;;;0.70;0.20;;;;;;;4.72;100.00;99097.13;5070706;28;20049;-79
2023/01/15 05:59:30;;;;;;;0.88;0.20;;;;;;;3.94;100.00;98973.84;5072151;28;20130;-80
2023/01/15 06:01:57;;;;;;;0.60;0.30;;;;;;;4.10;100.00;99025.50;5064426;28;20055;-80
2023/01/15 06:04:24;;;;;;;1.38;0.25;;;;;;;4.34;100.00;99077.78;5070936;28;20051;-80
2023/01/15 06:06:52;;;;;;;1.02;0.20;;;;;;;4.74;100.00;99126.72;5070970;28;20055;-79
2023/01/15 06:09:21;;;;;;;1.33;0.20;;;;;;;4.63;100.00;99118.47;5070673;28;20056;-80
2023/01/15 06:11:49;;;;;;;1.17;0.30;;;;;;;4.55;100.00;99103.97;5070660;28;20060;-79
2023/01/15 06:14:16;;;;;;;2.05;0.52;;;;;;;4.22;100.00;99050.34;5058998;28;20453;-79
2023/01/15 06:16:43;;;;;;;2.55;0.30;;;;;;;3.99;100.00;99030.34;5065880;28;20079;-79
2023/01/15 06:19:11;;;;;;;2.38;0.40;;;;;;;4.02;100.00;99034.63;5062528;28;20135;-80
2023/01/15 06:21:38;;;;;;;0.75;0.40;;;;;;;4.59;100.00;99129.09;5065557;28;20048;-81
2023/01/15 06:24:05;;;;;;;0.40;0.20;;;;;;;4.41;100.00;99093.19;5070749;28;20044;-81
2023/01/15 06:26:32;;;;;;;1.20;0.28;;;;;;;3.74;100.00;98985.16;5070781;28;20045;-80
2023/01/15 06:28:58;;;;;;;0.82;0.25;;;;;;;4.53;100.00;99126.75;5070329;28;20052;-80
2023/01/15 06:31:28;;;;;;;1.58;0.30;;;;;;;4.52;100.00;99130.28;5062841;28;20055;-81
2023/01/15 06:33:55;;;;;;;2.00;0.30;;;;;;;4.28;100.00;99091.16;5066858;28;20493;-80
2023/01/15 06:36:26;;;;;;;1.67;0.30;;;;;;;4.38;100.00;99116.94;5071217;28;20045;-81
2023/01/15 06:38:53;;;;;;;0.22;0.13;;;;;;;4.27;100.00;99087.69;5067995;28;20063;-79
2023/01/15 06:47:22;;;;;;;1.75;0.32;;;;;;;4.51;100.00;99152.19;5062755;28;20068;-81
2023/01/15 06:49:54;;;;;;;0.40;0.10;;;;;;;4.49;100.00;99161.88;5055022;28;20088;-81
2023/01/15 06:52:26;;;;;;;0.88;0.20;;;;;;;4.38;100.00;99156.25;5064240;28;20492;-81
2023/01/15 06:54:53;;;;;;;3.17;0.30;;;;;;;3.62;100.00;99027.56;5075144;28;20128;-81
2023/01/15 06:57:20;;;;;;;1.25;0.20;;;;;;;4.42;100.00;99164.81;5075473;28;20159;-82
2023/01/15 06:59:48;;;;;;;0.75;0.30;;;;;;;4.04;100.00;99100.91;5074806;28;20048;-82
2023/01/15 07:02:16;;;;;;;1.77;0.28;;;;;;;4.23;100.00;99128.03;5074794;28;20055;-82
2023/01/15 07:04:43;;;;;;;0.50;0.22;;;;;;;4.01;100.00;99098.41;5075770;28;20050;-80
2023/01/15 07:07:09;;;;;;;2.25;0.40;;;;;;;4.35;100.00;99174.69;5075173;28;20070;-80
2023/01/15 07:09:36;;;;;;;1.58;0.20;;;;;;;4.40;100.00;99171.91;5067893;28;20057;-80
2023/01/15 07:12:03;;;;;;;1.95;0.25;;;;;;;4.00;100.00;99104.53;5073086;28;20068;-83
2023/01/15 07:14:30;;;;;;;2.03;0.20;;;;;;;4.04;100.00;99116.59;5075523;28;20131;-81
2023/01/15 07:16:58;;;;;;;0.93;0.15;;;;;;;4.09;100.00;99131.19;5075724;28;20081;-80
2023/01/15 07:19:25;;;;;;;1.83;0.20;;;;;;;3.84;100.00;99086.84;5071119;28;20045;-79
2023/01/15 07:21:52;;;;;;;0.80;0.28;;;;;;;4.10;100.00;99130.28;5072821;28;20056;-79
2023/01/15 07:24:18;;;;;;;0.35;0.25;;;;;;;4.44;100.00;99182.16;5070745;28;20178;-81
2023/01/15 07:26:45;;;;;;;3.88;0.30;;;;;;;4.30;100.00;99160.06;5088186;28;20039;-80
2023/01/15 07:29:12;;;;;;;0.50;0.20;;;;;;;4.10;100.00;99147.78;5082878;28;20072;-80
2023/01/15 07:31:39;;;;;;;0.15;0.10;;;;;;;4.41;100.00;99205.03;5068054;28;20049;-80
2023/01/15 07:34:06;;;;;;;2.22;0.70;;;;;;;4.08;100.00;99163.59;5070786;28;20060;-80
2023/01/15 07:36:33;;;;;;;1.65;0.40;;;;;;;3.86;100.00;99137.38;5065779;28;20139;-79
2023/01/15 07:39:01;;;;;;;1.27;0.60;;;;;;;3.77;100.00;99123.81;5071173;28;20076;-79
2023/01/15 07:49:49;;;;;;;3.40;0.73;;;;;;;4.56;100.00;99207.88;5068903;28;20059;-80
2023/01/15 07:52:18;;;;;;;1.52;0.63;;;;;;;4.52;100.00;99193.22;5072003;28;20106;-81
2023/01/15 07:54:46;;;;;;;2.40;0.60;;;;;;;4.41;100.00;99161.31;5068219;28;20051;-81
2023/01/15 07:57:16;;;;;;;1.42;0.30;;;;;;;4.64;100.00;99212.81;5068422;28;20053;-80
2023/01/15 07:59:43;;;;;;;1.20;0.30;;;;;;;4.61;100.00;99214.69;5074136;28;20048;-79
2023/01/15 08:02:10;;;;;;;1.05;0.30;;;;;;;4.39;100.00;99160.56;5073756;28;20084;-79
2023/01/15 08:04:37;;;;;;;1.65;0.50;;;;;;;4.88;100.00;99242.38;5070395;28;20105;-81
2023/01/15 08:07:04;;;;;;;0.63;0.40;;;;;;;4.61;100.00;99193.72;5073041;28;20071;-81
2023/01/15 08:09:31;;;;;;;2.55;0.40;;;;;;;4.78;100.00;99222.72;5073488;28;20059;-80
2023/01/15 08:17:31;;;;;;;1.73;0.50;;;;;;;5.05;100.00;99249.53;5065599;28;20052;-79
2023/01/15 08:19:58;;;;;;;1.00;0.43;;;;;;;4.85;100.00;99211.94;5070536;28;20192;-80
2023/01/15 08:22:24;;;;;;;2.33;0.63;;;;;;;5.02;100.00;99257.56;5072218;28;20055;-80
2023/01/15 08:24:51;;;;;;;1.25;0.57;;;;;;;4.88;100.00;99226.66;5065226;28;20068;-80
2023/01/15 08:27:17;;;;;;;0.60;0.43;;;;;;;4.90;100.00;99222.19;5066436;28;20052;-79
2023/01/15 08:29:44;;;;;;;1.10;0.50;;;;;;;5.09;100.00;99262.47;5071480;28;20045;-79
2023/01/15 08:32:11;;;;;;;0.47;0.40;;;;;;;5.09;100.00;99266.88;5068451;28;20053;-79
2023/01/15 08:34:38;;;;;;;0.60;0.40;;;;;;;4.52;100.00;99172.25;5071413;28;20053;-80
2023/01/15 08:37:04;;;;;;;0.35;0.30;;;;;;;5.13;100.00;99261.44;5070742;28;20060;-78
2023/01/15 08:39:31;;;;;;;0.50;0.30;;;;;;;5.13;100.00;99257.97;5072560;28;20060;-79
2023/01/15 08:41:58;;;;;;;0.55;0.30;;;;;;;4.96;100.00;99257.81;5072905;28;20052;-79
2023/01/15 08:44:24;;;;;;;0.20;0.20;;;;;;;3.88;100.00;99085.81;5072344;28;20040;-80
2023/01/15 08:46:52;;;;;;;1.90;0.20;;;;;;;3.91;100.00;99125.88;5064963;28;20094;-80
2023/01/15 08:49:20;;;;;;;0.50;0.20;;;;;;;4.00;100.00;99149.06;5073420;28;20056;-79
2023/01/15 08:51:50;;;;;;;0.60;0.20;;;;;;;4.44;100.00;99241.59;5070903;28;20060;-80
2023/01/15 08:54:21;;;;;;;0.20;0.20;;;;;;;4.11;100.00;99186.16;5070775;28;20139;-82
2023/01/15 08:56:48;;;;;;;0.57;0.30;;;;;;;4.29;100.00;99222.13;5072489;28;20049;-80
2023/01/15 08:59:15;;;;;;;1.08;0.20;;;;;;;4.25;100.00;99204.78;5070327;28;20110;-79
2023/01/15 09:01:43;;;;;;;0.30;0.20;;;;;;;4.50;100.00;99262.34;5067749;28;20056;-79
2023/01/15 09:04:15;;;;;;;0.40;0.30;;;;;;;4.74;100.00;99287.56;5067103;28;20118;-79
2023/01/15 09:06:42;;;;;;;0.60;0.20;;;;;;;4.26;100.00;99209.13;5066672;28;20138;-78
2023/01/15 09:09:09;;;;;;;0.70;0.20;;;;;;;4.59;100.00;99269.81;5062903;28;20056;-79
2023/01/15 09:11:39;;;;;;;0.15;0.13;;;;;;;4.77;100.00;99286.59;5072090;28;20151;-79
2023/01/15 09:14:07;;;;;;;0.28;0.20;;;;;;;4.69;100.00;99283.44;5071277;28;20059;-78
2023/01/15 09:16:54;;;;;;;0.70;0.28;;;;;;;4.79;100.00;99300.50;5067691;28;20068;-78
2023/01/15 09:19:21;;;;;;;0.82;0.30;;;;;;;4.62;100.00;99279.34;5066118;28;20699;-80
2023/01/15 09:21:48;;;;;;;0.90;0.60;;;;;;;4.65;100.00;99274.81;5071528;28;20108;-78
2023/01/15 09:24:14;;;;;;;0.30;0.25;;;;;;;4.10;100.00;99181.84;5069421;28;20138;-80
2023/01/15 09:26:41;;;;;;;0.98;0.40;;;;;;;4.11;100.00;99218.44;5066395;28;20045;-79
2023/01/15 09:29:09;;;;;;;0.50;0.30;;;;;;;4.81;100.00;99324.88;5067805;28;20456;-79
2023/01/15 09:31:36;;;;;;;1.15;0.63;;;;;;;4.75;100.00;99336.47;5067662;28;20548;-78
2023/01/15 09:34:03;;;;;;;1.33;0.43;;;;;;;4.13;100.00;99226.25;5064385;28;20103;-80
2023/01/15 09:36:33;;;;;;;1.85;0.50;;;;;;;4.94;100.00;99333.97;5064832;28;20151;-80
2023/01/15 09:39:01;;;;;;;0.68;0.45;;;;;;;3.93;100.00;99173.81;5071436;28;20143;-80
2023/01/15 09:42:07;;;;;;;0.85;0.38;;;;;;;4.77;100.00;99316.28;5066561;28;20054;-80
2023/01/15 09:45:11;;;;;;;0.30;0.30;;;;;;;4.97;100.00;99354.81;5069202;28;20124;-80
2023/01/15 09:48:18;;;;;;;0.90;0.47;;;;;;;4.97;100.00;99359.22;5066264;28;20511;-81
2023/01/15 09:51:06;;;;;;;1.10;0.30;;;;;;;5.02;100.00;99365.16;5067051;28;20401;-79
2023/01/15 09:53:49;;;;;;;3.83;0.50;;;;;;;5.07;100.00;99371.91;5069961;28;20071;-79
2023/01/15 09:56:26;;;;;;;0.30;0.30;;;;;;;5.10;100.00;99363.91;5070013;28;20053;-79
2023/01/15 09:58:56;;;;;;;0.95;0.40;;;;;;;4.61;100.00;99265.38;5063925;28;20048;-81
2023/01/15 10:01:29;;;;;;;0.50;0.50;;;;;;;4.80;100.00;99296.94;5067252;28;20048;-79
2023/01/15 10:04:30;;;;;;;1.58;0.60;;;;;;;4.90;100.00;99314.88;5070315;28;20048;-81
2023/01/15 10:07:40;;;;;;;1.42;0.40;;;;;;;5.18;100.00;99353.97;5066647;28;20135;-79
2023/01/15 10:10:18;;;;;;;1.83;0.60;;;;;;;4.85;100.00;99288.00;4986666;28;20059;-80
2023/01/15 10:12:47;;;;;;;1.10;0.40;;;;;;;5.13;100.00;99315.69;4988417;28;20054;-79
2023/01/15 10:15:23;;;;;;;0.93;0.40;;;;;;;4.94;100.00;99316.44;5037461;28;20049;-79
2023/01/15 10:17:54;;;;;;;1.88;0.60;;;;;;;5.12;100.00;99340.22;5067150;28;20071;-79
2023/01/15 10:20:51;;;;;;;2.17;0.38;;;;;;;5.13;100.00;99350.66;5070400;28;20055;-79
2023/01/15 10:23:27;;;;;;;0.70;0.40;;;;;;;5.10;100.00;99366.53;5069293;28;20183;-81
2023/01/15 10:25:59;;;;;;;0.43;0.20;;;;;;;4.66;100.00;99294.03;5064572;28;20049;-80
2023/01/15 10:28:29;;;;;;;1.75;0.82;;;;;;;4.12;100.00;99193.97;5065981;28;20058;-80
2023/01/15 10:31:03;;;;;;;;;;;;;;;5.06;100.00;99357.06;5070752;28;20059;-81
2023/01/15 10:33:59;;;;;;;0.90;0.38;;;;;;;5.01;100.00;99352.94;5062912;28;19920;-80
2023/01/15 10:36:43;;;;;;;2.15;0.30;;;;;;;4.68;100.00;99300.94;5068880;28;20040;-81
2023/01/15 10:39:26;;;;;;;2.25;1.00;;;;;;;5.12;100.00;99355.97;5078163;28;20052;-79
2023/01/15 10:42:04;;;;;;;1.02;0.50;;;;;;;5.14;100.00;99362.88;5069404;28;20060;-80
2023/01/15 10:44:49;;;;;;;1.52;0.30;;;;;;;5.10;100.00;99357.81;5065511;28;20051;-82
2023/01/15 10:47:27;;;;;;;0.47;0.30;;;;;;;3.96;100.00;99171.06;5066691;28;20227;-80
2023/01/15 10:49:56;;;;;;;2.22;0.40;;;;;;;4.82;100.00;99308.25;5069944;28;20056;-82
2023/01/15 10:52:30;;;;;;;0.98;0.45;;;;;;;5.09;100.00;99382.31;5070731;28;20045;-80
2023/01/15 10:55:09;;;;;;;0.63;0.40;;;;;;;4.64;100.00;99301.13;5076899;28;20044;-80
2023/01/15 10:57:49;;;;;;;1.13;0.60;;;;;;;4.52;100.00;99291.97;5068028;28;20049;-79
2023/01/15 11:00:24;;;;;;;0.93;0.35;;;;;;;4.71;100.00;99323.56;5076144;28;20049;-80
2023/01/15 11:03:10;;;;;;;2.22;0.40;;;;;;;4.92;100.00;99372.50;5080307;28;20063;-80
2023/01/15 11:05:37;;;;;;;0.68;0.30;;;;;;;4.70;100.00;99342.84;5073885;28;20485;-80
2023/01/15 11:08:10;;;;;;;0.80;0.47;;;;;;;4.87;100.00;99359.59;5075318;28;20059;-80
2023/01/15 11:11:04;;;;;;;2.40;0.50;;;;;;;4.83;100.00;99357.16;5064596;28;20098;-80
2023/01/15 11:21:53;;;;;;;2.50;0.50;;;;;;;5.17;100.00;99357.50;5072857;28;20143;-80
2023/01/15 11:24:21;;;;;;;1.85;0.60;;;;;;;5.13;100.00;99365.56;5071688;28;20058;-79
2023/01/15 11:26:50;;;;;;;3.22;0.70;;;;;;;5.02;100.00;99350.25;5073844;28;20197;-80
2023/01/15 11:29:29;;;;;;;3.10;0.50;;;;;;;5.26;100.00;99406.97;5073675;28;20070;-81
2023/01/15 11:31:56;;;;;;;1.85;0.50;;;;;;;5.28;100.00;99389.38;5068729;28;20052;-81
2023/01/15 11:34:23;;;;;;;2.33;0.52;;;;;;;4.85;100.00;99310.75;5073526;28;20390;-81
2023/01/15 11:37:03;;;;;;;1.23;0.70;;;;;;;5.58;100.00;99410.88;5073617;28;20079;-81
2023/01/15 11:39:30;;;;;;;;;;;;;;;5.51;100.00;99411.22;5069117;28;20453;-81
2023/01/15 11:51:08;;;;;;;4.13;0.70;;;;;;;5.63;100.00;99418.56;5073639;28;20489;-82
2023/01/15 11:53:53;;;;;;;4.72;0.95;;;;;;;5.53;100.00;99401.47;5053447;28;20075;-82
2023/01/15 11:56:25;;;;;;;1.17;0.50;;;;;;;5.32;100.00;99363.88;5065650;28;20412;-83
2023/01/15 11:58:57;;;;;;;3.97;1.08;;;;;;;5.26;100.00;99385.97;5074198;28;20049;-82
2023/01/15 12:01:35;;;;;;;3.28;0.80;;;;;;;5.28;100.00;99399.91;5073600;28;20082;-84
2023/01/15 12:04:21;;;;;;;2.72;0.70;;;;;;;5.35;100.00;99400.50;5076144;28;20045;-83
2023/01/15 12:06:48;;;;;;;3.03;0.60;;;;;;;5.29;100.00;99367.47;5076313;28;20053;-84
2023/01/15 12:09:39;;;;;;;2.58;0.50;;;;;;;5.58;100.00;99400.38;5075767;28;20064;-82
2023/01/15 12:12:38;;;;;;;3.50;1.15;;;;;;;5.62;100.00;99396.72;5077248;28;20048;-84
2023/01/15 12:15:15;;;;;;;6.47;2.50;;;;;;;5.76;100.00;99385.59;5073223;28;20052;-84
2023/01/15 12:18:01;;;;;;;6.07;2.15;;;;;;;5.85;100.00;99377.31;5072383;28;20048;-83
2023/01/15 12:20:54;;;;;;;4.38;1.00;;;;;;;5.81;100.00;99359.16;5073614;28;20060;-83
2023/01/15 12:23:30;;;;;;;1.75;0.50;;;;;;;5.91;100.00;99377.09;5055161;28;20076;-84
2023/01/15 12:26:26;;;;;;;3.28;0.90;;;;;;;5.70;100.00;99335.94;5079293;28;20051;-84
2023/01/15 12:29:05;;;;;;;1.27;0.60;;;;;;;5.95;100.00;99376.03;5067030;28;20066;-82
2023/01/15 12:31:45;;;;;;;4.68;1.15;;;;;;;5.91;100.00;99376.22;5077393;28;20450;-83
2023/01/15 12:34:24;;;;;;;2.28;0.80;;;;;;;5.58;100.00;99312.88;5069190;28;20099;-81
2023/01/15 12:36:57;;;;;;;6.60;0.80;;;;;;;5.83;100.00;99347.63;5070728;28;20075;-82
2023/01/15 12:39:44;;;;;;;2.92;0.80;;;;;;;5.62;100.00;99314.44;5076558;28;20049;-81
2023/01/15 12:45:09;;;;;;;3.35;0.38;;;;;;;5.46;100.00;99316.88;5087637;28;20040;-83